Time;durP1;ratioP1;P1;durP2;ratioP2;P2;SDS_P1;SDS_P2;PMS_P1;PMS_P2;Temp;Humidity;BMP_temperature;BMP_pressure;BME280_temperature;BME280_humidity;BME280_pressure;Samples;Min_cycle;Max_cycle;Signal;HPM_P1;HPM_P2
2021/12/12 00:01:06;;;;;;;52.50;24.00;;;0.10;99.90;;;;;;6288317;28;20779;-63
2021/12/12 00:04:14;;;;;;;36.93;22.10;;;0.10;99.90;;;;;;6288190;28;20469;-63
2021/12/12 00:07:22;;;;;;;49.57;23.87;;;0.10;99.90;;;;;;6285362;28;20470;-64
2021/12/12 00:10:29;;;;;;;57.00;25.10;;;0.10;99.90;;;;;;6285767;28;20792;-64
2021/12/12 00:13:35;;;;;;;55.23;22.50;;;0.00;99.90;;;;;;6285591;28;20473;-64
2021/12/12 00:16:39;;;;;;;44.37;24.33;;;0.10;99.90;;;;;;6282667;28;20482;-64
2021/12/12 00:19:44;;;;;;;48.83;23.23;;;0.10;99.90;;;;;;6285017;28;20466;-64
2021/12/12 00:22:48;;;;;;;51.27;24.30;;;0.10;99.90;;;;;;6289040;28;20780;-64
2021/12/12 00:25:56;;;;;;;42.90;21.67;;;0.20;99.90;;;;;;6282552;28;20484;-64
2021/12/12 00:28:59;;;;;;;76.20;25.03;;;0.30;99.90;;;;;;6287831;28;20469;-64
2021/12/12 00:32:07;;;;;;;68.60;21.53;;;0.20;99.90;;;;;;6279837;28;20458;-63
2021/12/12 00:35:13;;;;;;;43.20;20.90;;;0.20;99.90;;;;;;6274242;28;20473;-63
2021/12/12 00:38:21;;;;;;;47.27;22.03;;;0.20;99.90;;;;;;6274140;28;20470;-63
2021/12/12 00:41:30;;;;;;;42.27;22.20;;;0.20;99.90;;;;;;6272178;28;20497;-63
2021/12/12 00:44:34;;;;;;;47.17;21.23;;;0.30;99.90;;;;;;6278744;28;20474;-63
2021/12/12 00:47:38;;;;;;;49.67;22.27;;;0.30;99.90;;;;;;6278991;28;20481;-63
2021/12/12 00:50:44;;;;;;;47.03;23.53;;;0.40;99.90;;;;;;6279063;28;20927;-63
2021/12/12 00:53:47;;;;;;;56.47;20.60;;;0.40;99.90;;;;;;6278549;28;20969;-63
2021/12/12 00:56:52;;;;;;;45.10;21.83;;;0.40;99.90;;;;;;6278740;28;20799;-63
2021/12/12 00:59:55;;;;;;;82.57;23.20;;;0.30;99.90;;;;;;6278352;28;20488;-63
2021/12/12 01:02:59;;;;;;;60.07;21.63;;;0.20;99.90;;;;;;6279027;28;20480;-63
2021/12/12 01:06:05;;;;;;;64.90;22.27;;;0.10;99.90;;;;;;6278352;28;20973;-63
2021/12/12 01:09:12;;;;;;;44.80;22.83;;;0.00;99.90;;;;;;6278554;28;20760;-63
2021/12/12 01:12:20;;;;;;;43.73;20.70;;;-0.10;99.90;;;;;;6278640;28;20508;-63
2021/12/12 01:15:30;;;;;;;54.53;24.63;;;-0.20;99.90;;;;;;6278320;28;20430;-63
2021/12/12 01:18:37;;;;;;;59.73;24.00;;;-0.20;99.90;;;;;;6278883;28;20454;-62
2021/12/12 01:21:44;;;;;;;46.13;21.97;;;-0.30;99.90;;;;;;6278289;28;20469;-63
2021/12/12 01:24:51;;;;;;;48.43;21.40;;;-0.30;99.90;;;;;;6278294;28;20485;-62
2021/12/12 01:27:58;;;;;;;49.27;20.33;;;-0.40;99.90;;;;;;6281906;28;20481;-63
2021/12/12 01:31:04;;;;;;;58.77;21.97;;;-0.30;99.90;;;;;;6303096;28;20977;-63
2021/12/12 01:34:11;;;;;;;43.47;21.07;;;-0.40;99.90;;;;;;6303319;28;20516;-62
2021/12/12 01:37:33;;;;;;;49.13;23.47;;;-0.30;99.90;;;;;;6302716;28;20477;-63
2021/12/12 01:40:37;;;;;;;47.20;24.67;;;-0.30;99.90;;;;;;6302693;28;20488;-63
2021/12/12 01:43:45;;;;;;;40.83;20.70;;;-0.40;99.90;;;;;;6302873;28;20491;-63
2021/12/12 01:47:00;;;;;;;40.27;19.17;;;-0.30;99.90;;;;;;6293048;28;20488;-63
2021/12/12 01:50:08;;;;;;;35.43;21.53;;;-0.30;99.90;;;;;;6302343;28;20473;-63
2021/12/12 01:53:14;;;;;;;30.07;17.37;;;-0.30;99.90;;;;;;6302238;28;20469;-63
2021/12/12 01:56:21;;;;;;;32.60;17.00;;;-0.30;99.90;;;;;;6302614;28;20619;-62
2021/12/12 01:59:32;;;;;;;31.47;18.20;;;-0.30;99.90;;;;;;6302856;28;20476;-63
2021/12/12 02:02:36;;;;;;;34.37;17.53;;;-0.20;99.90;;;;;;6302263;28;20466;-63
2021/12/12 02:05:40;;;;;;;33.70;18.03;;;-0.20;99.90;;;;;;6302096;28;20488;-62
2021/12/12 02:08:44;;;;;;;37.30;20.50;;;-0.30;99.90;;;;;;6301808;28;20476;-63
2021/12/12 02:11:52;;;;;;;38.57;19.07;;;-0.20;99.90;;;;;;6301514;28;20488;-62
2021/12/12 02:14:58;;;;;;;37.60;18.17;;;-0.10;99.90;;;;;;6301560;28;20481;-62
2021/12/12 02:18:04;;;;;;;33.40;18.30;;;-0.20;99.90;;;;;;6301252;28;20503;-62
2021/12/12 02:21:17;;;;;;;30.00;16.57;;;-0.30;99.90;;;;;;6301367;28;20474;-62
2021/12/12 02:38:01;;;;;;;25.07;15.93;;;-0.80;99.90;;;;;;6300248;28;20484;-63
2021/12/12 02:41:09;;;;;;;25.33;16.10;;;-0.90;99.90;;;;;;6300980;28;20851;-63
2021/12/12 02:44:13;;;;;;;23.50;15.13;;;-0.90;99.90;;;;;;6300406;28;20829;-63
2021/12/12 02:47:20;;;;;;;25.93;15.33;;;-0.90;99.90;;;;;;6287230;28;20466;-62
2021/12/12 02:50:43;;;;;;;28.83;18.43;;;-0.80;99.90;;;;;;6273704;28;20492;-62
2021/12/12 02:53:50;;;;;;;35.83;18.90;;;-0.70;99.90;;;;;;6299150;28;20480;-63
2021/12/12 02:56:55;;;;;;;27.23;17.03;;;-0.70;99.90;;;;;;6298414;28;20489;-62
2021/12/12 02:59:58;;;;;;;28.20;15.13;;;-0.70;99.90;;;;;;6299041;28;20542;-63
2021/12/12 03:03:02;;;;;;;31.63;17.80;;;-0.80;99.90;;;;;;6284596;28;20473;-62
2021/12/12 03:06:07;;;;;;;29.60;17.50;;;-0.80;99.90;;;;;;6298875;28;20488;-65
2021/12/12 03:09:15;;;;;;;30.57;17.80;;;-0.70;99.90;;;;;;6298692;28;20504;-64
2021/12/12 03:12:30;;;;;;;24.30;13.67;;;-0.70;99.90;;;;;;6298911;28;20442;-63
2021/12/12 03:15:38;;;;;;;21.13;14.13;;;-0.80;99.90;;;;;;6298496;28;20933;-65
2021/12/12 03:18:44;;;;;;;24.33;15.40;;;-0.70;99.90;;;;;;6298364;28;20480;-62
2021/12/12 03:21:49;;;;;;;22.37;13.17;;;-0.70;99.90;;;;;;6275578;28;20980;-63
2021/12/12 03:24:54;;;;;;;22.93;14.40;;;-0.60;99.90;;;;;;6273916;28;20469;-65
2021/12/12 03:27:59;;;;;;;21.67;14.20;;;-0.60;99.90;;;;;;6273554;28;20466;-63
2021/12/12 03:31:05;;;;;;;23.60;14.37;;;-0.50;99.90;;;;;;6273808;28;20480;-62
2021/12/12 03:34:11;;;;;;;22.27;13.20;;;-0.50;99.90;;;;;;6284445;28;20466;-64
2021/12/12 03:37:17;;;;;;;21.13;14.37;;;-0.50;99.90;;;;;;6288189;28;20774;-65
2021/12/12 03:40:24;;;;;;;19.53;13.47;;;-0.40;99.90;;;;;;6276808;28;20476;-65
2021/12/12 03:43:28;;;;;;;11.57;6.83;;;-0.30;99.90;;;;;;6289392;28;20469;-68
2021/12/12 03:46:32;;;;;;;15.07;8.97;;;-0.20;99.90;;;;;;6289681;28;20484;-62
2021/12/12 03:49:37;;;;;;;17.53;9.90;;;0.00;99.90;;;;;;6286494;28;20474;-62
2021/12/12 03:52:40;;;;;;;10.07;7.60;;;0.20;99.90;;;;;;6287685;28;20473;-62
2021/12/12 03:55:46;;;;;;;12.23;6.63;;;0.20;99.90;;;;;;6280107;28;20483;-65
2021/12/12 03:58:51;;;;;;;8.10;5.90;;;0.30;99.90;;;;;;6285475;28;20486;-64
2021/12/12 04:01:54;;;;;;;5.33;4.57;;;0.40;99.90;;;;;;6288636;28;20988;-65
2021/12/12 04:04:58;;;;;;;4.80;4.20;;;0.60;99.90;;;;;;6284438;28;20814;-65
2021/12/12 04:08:01;;;;;;;3.27;2.97;;;0.90;99.90;;;;;;6287054;28;20472;-64
2021/12/12 04:11:08;;;;;;;3.63;3.10;;;1.10;99.90;;;;;;6286672;28;20466;-65
2021/12/12 04:14:13;;;;;;;3.20;2.90;;;1.40;99.90;;;;;;6281354;28;20485;-65
2021/12/12 04:17:19;;;;;;;4.10;3.20;;;1.50;99.90;;;;;;6290068;28;21169;-64
2021/12/12 04:20:26;;;;;;;3.50;3.10;;;1.80;99.90;;;;;;6291166;28;20469;-64
2021/12/12 04:23:29;;;;;;;3.27;2.83;;;2.00;99.90;;;;;;6292125;28;20469;-63
2021/12/12 04:26:35;;;;;;;2.87;2.50;;;2.30;99.90;;;;;;6292304;28;20469;-64
2021/12/12 04:29:43;;;;;;;2.67;2.47;;;2.40;99.90;;;;;;6290337;28;20458;-64
2021/12/12 04:32:47;;;;;;;3.90;2.90;;;2.60;99.90;;;;;;6290935;28;20487;-64
2021/12/12 04:35:50;;;;;;;3.07;2.77;;;2.70;99.90;;;;;;6289546;28;20981;-65
2021/12/12 04:38:59;;;;;;;3.93;3.23;;;2.80;99.90;;;;;;6287085;28;20478;-65
2021/12/12 04:42:07;;;;;;;2.57;2.37;;;3.00;99.90;;;;;;6289719;28;20953;-65
2021/12/12 04:45:36;;;;;;;3.40;2.63;;;3.00;99.90;;;;;;6291117;28;20470;-65
2021/12/12 04:52:13;;;;;;;2.67;2.47;;;3.20;98.90;;;;;;6289481;28;20465;-65
2021/12/12 04:55:23;;;;;;;2.70;2.50;;;3.30;98.70;;;;;;6292358;28;20473;-65
2021/12/12 04:58:34;;;;;;;3.00;2.80;;;3.20;98.70;;;;;;6292584;28;20955;-65
2021/12/12 05:01:43;;;;;;;3.47;3.27;;;3.30;98.30;;;;;;6287098;28;20518;-65
2021/12/12 05:04:50;;;;;;;2.90;2.53;;;3.30;98.30;;;;;;6290619;28;20985;-65
2021/12/12 05:08:03;;;;;;;3.43;2.47;;;3.30;97.90;;;;;;6288758;28;20470;-65
2021/12/12 05:11:09;;;;;;;3.90;2.50;;;3.40;97.00;;;;;;6294489;28;20484;-65
2021/12/12 05:14:21;;;;;;;3.80;2.07;;;3.50;96.70;;;;;;6303249;28;20476;-65
2021/12/12 05:17:33;;;;;;;2.50;2.30;;;3.40;96.90;;;;;;6302963;28;20477;-65
2021/12/12 05:20:42;;;;;;;2.60;2.40;;;3.50;96.20;;;;;;6302816;28;20474;-65
2021/12/12 05:23:49;;;;;;;3.67;2.53;;;3.60;96.20;;;;;;6303329;28;20473;-65
2021/12/12 05:26:56;;;;;;;3.40;2.77;;;3.50;96.40;;;;;;6302259;28;20477;-65
2021/12/12 05:30:02;;;;;;;2.60;2.27;;;3.40;96.20;;;;;;6303117;28;20956;-65
2021/12/12 05:33:07;;;;;;;2.10;2.00;;;3.50;95.30;;;;;;6303641;28;20484;-65
2021/12/12 05:36:13;;;;;;;2.20;2.07;;;3.60;95.20;;;;;;6303229;28;20492;-65
2021/12/12 05:39:17;;;;;;;1.63;1.53;;;3.70;94.30;;;;;;6302960;28;20780;-65
2021/12/12 05:42:22;;;;;;;2.17;2.00;;;3.70;93.80;;;;;;6299167;28;20465;-64
2021/12/12 05:45:26;;;;;;;2.17;1.97;;;3.90;93.20;;;;;;6302679;28;20446;-64
2021/12/12 05:48:31;;;;;;;2.00;1.80;;;3.80;93.70;;;;;;6303102;28;20468;-65
2021/12/12 05:51:35;;;;;;;2.00;1.90;;;3.90;93.40;;;;;;6302796;28;20458;-64
2021/12/12 05:54:39;;;;;;;1.77;1.63;;;3.80;93.50;;;;;;6302636;28;20961;-64
2021/12/12 05:57:48;;;;;;;1.70;1.43;;;3.80;92.70;;;;;;6302026;28;20477;-65
2021/12/12 06:00:55;;;;;;;1.60;1.50;;;3.80;92.50;;;;;;6297034;28;20855;-65
2021/12/12 06:04:00;;;;;;;1.77;1.60;;;3.90;93.00;;;;;;6302066;28;20500;-64
2021/12/12 06:07:05;;;;;;;1.70;1.60;;;3.80;93.40;;;;;;6301607;28;20811;-64
2021/12/12 06:10:12;;;;;;;1.33;1.30;;;3.80;92.40;;;;;;6301974;28;20473;-64
2021/12/12 06:13:17;;;;;;;1.77;1.37;;;3.80;92.50;;;;;;6302007;28;20473;-64
2021/12/12 06:16:22;;;;;;;1.60;1.50;;;3.80;92.30;;;;;;6301657;28;20474;-65
2021/12/12 06:19:28;;;;;;;1.60;1.50;;;3.80;92.10;;;;;;6302206;28;20568;-66
2021/12/12 06:22:31;;;;;;;3.27;1.73;;;3.90;91.90;;;;;;6301506;28;20473;-64
2021/12/12 06:25:35;;;;;;;1.50;1.40;;;3.90;91.90;;;;;;6301502;28;20529;-64
2021/12/12 06:28:41;;;;;;;1.40;1.30;;;3.90;92.20;;;;;;6301851;28;20957;-64
2021/12/12 06:31:47;;;;;;;2.80;1.63;;;3.90;92.20;;;;;;6301511;28;20462;-64
2021/12/12 06:34:55;;;;;;;1.80;1.33;;;3.90;91.90;;;;;;6301272;28;20488;-64
2021/12/12 06:38:03;;;;;;;1.40;1.30;;;3.90;91.50;;;;;;6300778;28;20504;-64
2021/12/12 06:41:08;;;;;;;1.37;1.27;;;3.90;91.80;;;;;;6300661;28;20488;-64
2021/12/12 06:44:13;;;;;;;1.30;1.20;;;3.90;91.80;;;;;;6301036;28;20980;-64
2021/12/12 06:47:18;;;;;;;1.13;1.03;;;3.90;91.60;;;;;;6300546;28;20818;-66
2021/12/12 06:50:24;;;;;;;1.43;1.33;;;4.00;90.80;;;;;;6300925;28;20957;-64
2021/12/12 06:53:34;;;;;;;2.23;1.60;;;4.00;90.90;;;;;;6301109;28;20973;-64
2021/12/12 06:56:38;;;;;;;1.73;1.60;;;4.10;91.00;;;;;;6301194;28;20785;-64
2021/12/12 06:59:43;;;;;;;1.20;1.20;;;4.20;90.50;;;;;;6300688;28;20469;-64
2021/12/12 07:02:47;;;;;;;3.50;1.60;;;4.30;90.40;;;;;;6301392;28;20477;-64
2021/12/12 07:05:52;;;;;;;1.03;1.03;;;4.30;89.40;;;;;;6300430;28;20522;-64
2021/12/12 07:08:59;;;;;;;2.10;1.67;;;4.40;89.10;;;;;;6290925;28;21010;-64
2021/12/12 07:12:08;;;;;;;1.27;1.23;;;4.50;88.90;;;;;;6300842;28;20483;-64
2021/12/12 07:15:14;;;;;;;1.43;1.30;;;4.60;88.60;;;;;;6301073;28;20473;-64
2021/12/12 07:18:20;;;;;;;1.47;1.37;;;4.60;86.80;;;;;;6301690;28;20445;-64
2021/12/12 07:21:27;;;;;;;1.50;1.40;;;4.70;87.40;;;;;;6300811;28;20929;-64
2021/12/12 07:24:31;;;;;;;1.97;1.80;;;4.80;87.10;;;;;;6301389;28;20417;-64
2021/12/12 07:27:34;;;;;;;1.73;1.50;;;4.90;86.30;;;;;;6300886;28;20461;-64
2021/12/12 07:30:38;;;;;;;0.90;0.90;;;4.90;83.70;;;;;;6301763;28;20464;-64
2021/12/12 07:33:43;;;;;;;2.33;2.13;;;5.00;83.80;;;;;;6301122;28;20952;-63
2021/12/12 07:36:51;;;;;;;1.57;1.47;;;5.10;81.80;;;;;;6300476;28;20484;-63
2021/12/12 07:39:54;;;;;;;1.30;1.30;;;5.10;82.50;;;;;;6299870;28;20523;-64
2021/12/12 07:42:58;;;;;;;1.90;1.60;;;5.10;82.80;;;;;;6300240;28;20483;-63
2021/12/12 07:46:02;;;;;;;3.00;1.27;;;5.20;81.20;;;;;;6301232;28;20492;-64
2021/12/12 07:49:07;;;;;;;1.40;1.10;;;5.30;81.30;;;;;;6303928;28;20623;-64
2021/12/12 07:52:15;;;;;;;1.37;1.27;;;5.40;80.30;;;;;;6302744;28;20988;-64
2021/12/12 07:55:19;;;;;;;1.50;1.40;;;5.40;79.80;;;;;;6302158;28;20961;-64
2021/12/12 07:58:23;;;;;;;1.67;1.57;;;5.50;80.00;;;;;;6300814;28;20473;-64
2021/12/12 08:01:27;;;;;;;1.43;1.13;;;5.50;81.90;;;;;;6299637;28;20477;-64
2021/12/12 08:04:34;;;;;;;1.57;1.47;;;5.60;80.30;;;;;;6299945;28;20546;-65
2021/12/12 08:07:40;;;;;;;1.00;1.00;;;5.60;80.80;;;;;;6299703;28;20477;-65
2021/12/12 08:10:46;;;;;;;0.90;0.90;;;5.70;79.90;;;;;;6294700;28;20473;-65
2021/12/12 08:13:50;;;;;;;1.13;1.03;;;5.90;79.50;;;;;;6300272;28;20531;-65
2021/12/12 08:16:55;;;;;;;1.20;1.10;;;6.00;80.10;;;;;;6300029;28;20480;-65
2021/12/12 08:20:00;;;;;;;1.50;1.40;;;6.20;80.70;;;;;;6301652;28;20539;-66
2021/12/12 08:23:06;;;;;;;1.30;1.20;;;6.30;80.90;;;;;;6301566;28;20469;-68
2021/12/12 08:26:10;;;;;;;1.23;1.13;;;6.40;77.50;;;;;;6300178;28;20481;-64
2021/12/12 08:29:15;;;;;;;1.10;1.00;;;6.60;77.30;;;;;;6299842;28;20468;-65
2021/12/12 08:32:19;;;;;;;1.10;1.00;;;6.80;76.00;;;;;;6299616;28;20523;-65
2021/12/12 08:35:43;;;;;;;1.10;1.00;;;7.00;75.40;;;;;;6299488;28;20470;-65
2021/12/12 08:38:48;;;;;;;1.20;1.10;;;7.20;74.80;;;;;;6299036;28;20473;-65
2021/12/12 08:41:55;;;;;;;1.03;1.00;;;7.40;75.00;;;;;;6300551;28;20481;-66
2021/12/12 08:45:00;;;;;;;0.93;0.77;;;7.60;71.70;;;;;;6300437;28;20473;-65
2021/12/12 08:48:04;;;;;;;1.73;0.90;;;7.70;71.80;;;;;;6301191;28;20563;-65
2021/12/12 08:51:11;;;;;;;1.57;1.20;;;7.80;72.40;;;;;;6302483;28;20491;-66
2021/12/12 08:54:25;;;;;;;1.13;1.00;;;7.90;70.50;;;;;;6301483;28;20544;-66
2021/12/12 08:57:38;;;;;;;1.50;1.40;;;8.00;71.00;;;;;;6301078;28;20461;-66
2021/12/12 09:01:06;;;;;;;1.30;1.20;;;8.10;70.70;;;;;;6307823;28;20507;-65
2021/12/12 09:04:12;;;;;;;1.27;1.17;;;8.20;70.80;;;;;;6306083;28;20811;-66
2021/12/12 09:07:36;;;;;;;1.10;1.00;;;8.20;68.80;;;;;;6304474;28;20810;-65
2021/12/12 09:10:44;;;;;;;1.10;1.00;;;8.30;68.40;;;;;;6304118;28;20471;-65
2021/12/12 09:13:51;;;;;;;1.00;0.87;;;8.30;65.80;;;;;;6303609;28;20972;-65
2021/12/12 09:17:00;;;;;;;1.00;1.00;;;8.20;66.70;;;;;;6304688;28;20477;-65
2021/12/12 09:20:10;;;;;;;0.97;0.93;;;8.30;68.10;;;;;;6304526;28;20484;-65
2021/12/12 09:23:18;;;;;;;0.90;0.90;;;8.40;67.80;;;;;;6304359;28;20480;-66
2021/12/12 09:26:25;;;;;;;1.30;1.20;;;8.70;68.60;;;;;;6304142;28;20986;-65
2021/12/12 09:29:34;;;;;;;1.30;1.20;;;8.80;67.30;;;;;;6304218;28;20465;-65
2021/12/12 09:32:41;;;;;;;1.40;1.30;;;8.80;64.10;;;;;;6303269;28;20482;-65
2021/12/12 09:35:50;;;;;;;1.10;1.00;;;8.90;64.50;;;;;;6306334;28;20468;-64
2021/12/12 09:38:59;;;;;;;0.90;0.90;;;9.00;65.00;;;;;;6305299;28;20478;-64
2021/12/12 09:42:32;;;;;;;1.00;1.00;;;9.10;65.10;;;;;;6304560;28;20477;-64
2021/12/12 09:46:01;;;;;;;1.20;1.20;;;9.10;63.50;;;;;;6288189;28;20545;-64
2021/12/12 09:53:04;;;;;;;1.57;1.13;;;9.20;62.50;;;;;;6277565;28;20980;-64
2021/12/12 09:56:15;;;;;;;1.13;0.97;;;9.20;63.10;;;;;;6277794;28;20466;-64
2021/12/12 09:59:39;;;;;;;0.80;0.80;;;9.10;62.50;;;;;;6277787;28;20466;-64
2021/12/12 10:03:00;;;;;;;2.07;1.97;;;8.90;61.90;;;;;;6278204;28;20477;-64
2021/12/12 10:06:09;;;;;;;1.23;1.13;;;9.00;62.00;;;;;;6277418;28;20482;-64
2021/12/12 10:09:16;;;;;;;0.80;0.80;;;8.90;62.60;;;;;;6277783;28;20484;-64
2021/12/12 10:12:21;;;;;;;0.80;0.80;;;8.90;62.70;;;;;;6301909;28;20461;-64
2021/12/12 10:15:28;;;;;;;0.80;0.80;;;8.80;61.80;;;;;;6286177;28;20454;-65
2021/12/12 10:18:42;;;;;;;1.50;1.20;;;8.70;60.50;;;;;;6268160;28;20422;-65
2021/12/12 10:21:58;;;;;;;1.93;1.00;;;8.50;60.20;;;;;;6277183;28;20478;-65
2021/12/12 10:25:07;;;;;;;1.87;0.90;;;8.40;60.70;;;;;;6276731;28;20478;-65
2021/12/12 10:28:18;;;;;;;1.23;1.17;;;8.30;59.80;;;;;;6276959;28;20478;-65
2021/12/12 10:31:28;;;;;;;2.00;1.40;;;8.20;61.90;;;;;;6276460;28;20981;-65
2021/12/12 10:34:36;;;;;;;2.20;1.53;;;8.10;62.20;;;;;;6279039;28;20843;-66
2021/12/12 10:37:51;;;;;;;0.83;0.80;;;8.00;60.70;;;;;;6289780;28;20775;-64
2021/12/12 10:40:59;;;;;;;1.27;1.03;;;8.00;62.90;;;;;;6284619;28;20576;-64
2021/12/12 10:44:07;;;;;;;2.03;1.10;;;8.00;62.90;;;;;;6289816;28;20469;-64
2021/12/12 10:47:14;;;;;;;1.73;1.20;;;8.00;63.20;;;;;;6292879;28;20477;-64
2021/12/12 10:50:22;;;;;;;4.03;1.57;;;8.00;62.50;;;;;;6288932;28;20489;-65
2021/12/12 10:53:32;;;;;;;1.67;1.20;;;8.00;62.50;;;;;;6291750;28;20457;-63
2021/12/12 10:56:41;;;;;;;2.17;1.70;;;8.10;61.90;;;;;;6299475;28;20477;-65
2021/12/12 10:59:52;;;;;;;2.87;1.67;;;8.00;60.50;;;;;;6281729;28;20970;-65
2021/12/12 11:03:06;;;;;;;1.90;1.50;;;8.10;61.60;;;;;;6274772;28;20482;-65
2021/12/12 11:06:15;;;;;;;2.60;1.20;;;8.20;61.40;;;;;;6274443;28;20497;-64
2021/12/12 11:09:23;;;;;;;3.37;2.10;;;8.30;59.60;;;;;;6274865;28;20469;-65
2021/12/12 11:12:35;;;;;;;1.37;1.10;;;9.10;60.10;;;;;;6274031;28;20434;-63
2021/12/12 11:15:43;;;;;;;1.53;1.13;;;12.40;55.00;;;;;;6282296;28;20469;-65
2021/12/12 11:18:53;;;;;;;1.03;1.03;;;14.50;46.90;;;;;;6298625;28;20461;-65
2021/12/12 11:22:01;;;;;;;1.50;0.97;;;13.90;44.50;;;;;;6294081;28;20473;-67
2021/12/12 11:25:09;;;;;;;2.10;1.00;;;12.60;43.90;;;;;;6282873;28;20493;-64
2021/12/12 11:28:20;;;;;;;1.00;0.93;;;11.80;45.60;;;;;;6274397;28;20481;-65
2021/12/12 11:31:32;;;;;;;0.87;0.87;;;13.80;44.80;;;;;;6273924;28;20549;-66
2021/12/12 11:34:41;;;;;;;0.70;0.57;;;17.90;40.10;;;;;;6274077;28;20473;-67
2021/12/12 11:37:52;;;;;;;0.80;0.67;;;20.90;33.70;;;;;;6273187;28;20483;-65
2021/12/12 11:41:05;;;;;;;1.30;0.80;;;23.10;29.70;;;;;;6280915;28;20360;-65
2021/12/12 11:44:20;;;;;;;1.47;0.80;;;25.30;26.70;;;;;;6298767;28;20227;-67
2021/12/12 11:47:40;;;;;;;1.73;1.20;;;26.80;24.10;;;;;;6296306;28;20230;-67
2021/12/12 11:50:54;;;;;;;1.10;0.90;;;28.30;22.60;;;;;;6298653;28;20242;-66
2021/12/12 11:54:05;;;;;;;0.90;0.77;;;29.00;21.30;;;;;;6299591;28;20222;-65
2021/12/12 11:57:13;;;;;;;1.97;1.00;;;27.60;21.90;;;;;;6297842;28;20230;-66
2021/12/12 12:00:18;;;;;;;1.87;1.10;;;25.00;23.10;;;;;;6303404;28;20649;-65
2021/12/12 12:03:28;;;;;;;1.40;0.80;;;22.70;24.60;;;;;;6299230;28;20223;-66
2021/12/12 12:06:41;;;;;;;0.80;0.60;;;23.40;25.10;;;;;;6300525;28;20555;-65
2021/12/12 12:10:02;;;;;;;0.90;0.77;;;25.00;23.70;;;;;;6299873;28;20284;-65
2021/12/12 12:13:16;;;;;;;1.20;0.80;;;25.90;23.20;;;;;;6301291;28;20523;-65
2021/12/12 12:16:43;;;;;;;1.17;0.63;;;25.20;23.20;;;;;;6303557;28;20238;-65
2021/12/12 12:20:05;;;;;;;0.70;0.60;;;23.20;24.40;;;;;;6301928;28;20935;-66
2021/12/12 12:23:31;;;;;;;1.13;0.63;;;20.60;25.30;;;;;;6298853;28;20231;-65
2021/12/12 12:26:55;;;;;;;1.60;0.73;;;20.40;27.50;;;;;;6274273;28;20239;-65
2021/12/12 12:30:38;;;;;;;0.80;0.60;;;22.60;25.80;;;;;;6278944;28;20232;-65
2021/12/12 12:34:18;;;;;;;1.43;0.80;;;23.30;24.90;;;;;;6303272;28;20227;-65
2021/12/12 12:38:37;;;;;;;1.90;1.07;;;24.70;24.40;;;;;;6308804;28;20231;-65
2021/12/12 12:46:07;;;;;;;1.33;1.10;;;26.10;22.80;;;;;;6345164;27;21026;-66
2021/12/12 12:49:48;;;;;;;1.17;0.80;;;26.60;22.30;;;;;;6311187;28;20683;-66
2021/12/12 12:53:19;;;;;;;3.53;1.17;;;26.00;22.60;;;;;;6309537;28;20223;-67
2021/12/12 12:57:06;;;;;;;1.07;0.80;;;25.20;22.20;;;;;;6310066;28;20222;-66
2021/12/12 13:00:13;;;;;;;1.77;0.80;;;22.20;23.80;;;;;;6307832;28;20223;-65
2021/12/12 13:03:35;;;;;;;0.57;0.50;;;19.70;26.10;;;;;;6309305;28;20223;-65
2021/12/12 13:07:06;;;;;;;1.17;0.70;;;16.40;28.50;;;;;;6312563;28;20539;-65
2021/12/12 13:10:14;;;;;;;1.73;0.83;;;15.00;30.20;;;;;;6310486;28;20779;-65
2021/12/12 13:13:27;;;;;;;1.47;0.60;;;14.40;32.40;;;;;;6311467;28;20457;-66
2021/12/12 13:16:41;;;;;;;1.40;1.30;;;13.70;32.40;;;;;;6310836;28;20460;-67
2021/12/12 13:20:03;;;;;;;1.90;0.70;;;12.90;34.90;;;;;;6307444;28;20970;-67
2021/12/12 13:23:22;;;;;;;2.23;1.13;;;12.60;36.30;;;;;;6310481;28;20487;-67
2021/12/12 13:26:36;;;;;;;2.60;0.90;;;12.00;38.20;;;;;;6310389;28;20804;-67
2021/12/12 13:30:05;;;;;;;1.20;0.80;;;11.70;40.40;;;;;;6318589;28;20480;-67
2021/12/12 13:33:17;;;;;;;2.00;0.70;;;11.70;39.50;;;;;;6306207;28;20495;-66
2021/12/12 13:36:34;;;;;;;1.63;0.93;;;11.90;40.10;;;;;;6320388;28;20453;-67
2021/12/12 13:39:50;;;;;;;0.90;0.80;;;12.30;39.80;;;;;;6320199;28;20849;-66
2021/12/12 13:43:05;;;;;;;1.00;0.80;;;12.20;38.70;;;;;;6319576;28;20488;-66
2021/12/12 13:46:19;;;;;;;1.20;0.80;;;11.70;38.50;;;;;;6318418;28;20871;-66
2021/12/12 13:49:26;;;;;;;1.57;0.83;;;11.10;39.80;;;;;;6319000;28;20472;-66
2021/12/12 13:52:36;;;;;;;2.00;1.30;;;10.80;40.50;;;;;;6318957;28;20461;-66
2021/12/12 13:55:48;;;;;;;0.87;0.80;;;10.70;41.70;;;;;;6308692;28;20495;-66
2021/12/12 13:59:01;;;;;;;1.23;0.90;;;10.50;42.60;;;;;;6315322;28;20475;-66
2021/12/12 14:02:08;;;;;;;1.20;1.10;;;10.30;42.40;;;;;;6312343;28;20548;-66
2021/12/12 14:05:16;;;;;;;1.90;1.13;;;10.10;42.60;;;;;;6318094;28;20547;-66
2021/12/12 14:08:23;;;;;;;1.30;1.20;;;10.00;43.40;;;;;;6315284;28;20534;-66
2021/12/12 14:11:28;;;;;;;1.70;0.87;;;9.80;44.10;;;;;;6302334;28;20487;-66
2021/12/12 14:14:38;;;;;;;1.63;1.20;;;9.60;44.80;;;;;;6301663;28;20465;-66
2021/12/12 14:17:46;;;;;;;4.43;1.20;;;9.40;45.50;;;;;;6302666;28;20966;-67
2021/12/12 14:20:52;;;;;;;1.37;1.10;;;9.20;46.00;;;;;;6302765;28;20976;-66
2021/12/12 14:23:55;;;;;;;1.83;1.10;;;9.20;47.30;;;;;;6302296;28;20807;-66
2021/12/12 14:27:01;;;;;;;1.37;0.97;;;9.00;46.90;;;;;;6302978;28;20481;-66
2021/12/12 14:30:11;;;;;;;1.87;1.17;;;8.90;47.20;;;;;;6302396;28;20473;-66
2021/12/12 14:33:18;;;;;;;1.20;1.10;;;8.70;48.10;;;;;;6303974;28;20519;-66
2021/12/12 14:36:25;;;;;;;1.27;1.10;;;8.60;48.30;;;;;;6306962;28;20937;-66
2021/12/12 14:39:31;;;;;;;1.07;0.97;;;8.40;48.90;;;;;;6302252;28;20422;-66
2021/12/12 14:42:36;;;;;;;1.20;1.10;;;8.30;49.50;;;;;;6301923;28;20753;-66
2021/12/12 14:45:44;;;;;;;1.87;1.77;;;8.20;49.30;;;;;;6301606;28;20932;-66
2021/12/12 14:48:52;;;;;;;1.70;1.60;;;8.10;49.60;;;;;;6302076;28;20535;-66
2021/12/12 14:52:20;;;;;;;1.40;1.30;;;8.00;50.80;;;;;;6301766;28;20801;-66
2021/12/12 14:55:27;;;;;;;1.20;1.10;;;7.90;51.40;;;;;;6302390;28;20473;-66
2021/12/12 14:58:35;;;;;;;1.27;1.17;;;7.80;51.40;;;;;;6292690;28;20477;-66
2021/12/12 15:01:44;;;;;;;2.07;1.10;;;7.80;51.10;;;;;;6276993;28;20493;-67
2021/12/12 15:04:56;;;;;;;1.70;1.33;;;7.80;51.10;;;;;;6276369;28;20470;-67
2021/12/12 15:08:09;;;;;;;1.43;1.30;;;7.60;51.60;;;;;;6289596;28;20485;-67
2021/12/12 15:11:15;;;;;;;1.13;1.13;;;7.60;52.40;;;;;;6302354;28;20492;-67
2021/12/12 15:14:24;;;;;;;0.80;0.80;;;7.50;52.40;;;;;;6301626;28;20473;-67
2021/12/12 15:17:30;;;;;;;1.90;1.60;;;7.50;52.70;;;;;;6301070;28;20482;-66
2021/12/12 15:20:37;;;;;;;1.33;1.23;;;7.40;52.70;;;;;;6301104;28;20977;-66
2021/12/12 15:23:48;;;;;;;1.50;1.40;;;7.40;52.50;;;;;;6301273;28;20481;-66
2021/12/12 15:27:01;;;;;;;1.30;1.20;;;7.30;52.80;;;;;;6301384;28;20469;-66
2021/12/12 15:30:08;;;;;;;1.17;1.07;;;7.30;53.30;;;;;;6300830;28;20474;-66
2021/12/12 15:33:18;;;;;;;2.33;1.40;;;7.30;53.30;;;;;;6301403;28;20473;-66
2021/12/12 15:36:28;;;;;;;1.77;1.20;;;7.30;53.30;;;;;;6291032;28;20773;-67
2021/12/12 15:39:34;;;;;;;1.43;1.33;;;7.20;54.20;;;;;;6301377;28;20429;-68
2021/12/12 15:42:39;;;;;;;1.40;1.30;;;7.10;54.20;;;;;;6300794;28;20418;-67
2021/12/12 15:45:46;;;;;;;1.20;1.10;;;7.00;54.30;;;;;;6300815;28;20476;-66
2021/12/12 15:48:53;;;;;;;1.97;1.83;;;7.00;54.50;;;;;;6300839;28;20469;-66
2021/12/12 15:52:02;;;;;;;1.80;1.70;;;7.00;55.30;;;;;;6300166;28;20473;-66
2021/12/12 15:55:10;;;;;;;7.53;2.17;;;6.90;55.20;;;;;;6310337;28;20478;-67
2021/12/12 15:58:22;;;;;;;2.00;1.80;;;6.90;55.90;;;;;;6294749;28;20937;-67
2021/12/12 16:01:33;;;;;;;2.17;2.00;;;6.90;55.80;;;;;;6275766;28;20466;-65
2021/12/12 16:04:41;;;;;;;2.40;2.10;;;6.90;56.60;;;;;;6286314;28;20462;-66
2021/12/12 16:07:47;;;;;;;2.13;1.83;;;6.90;56.00;;;;;;6300179;28;20489;-66
2021/12/12 16:10:53;;;;;;;4.27;2.50;;;6.80;56.20;;;;;;6314340;28;20469;-67
2021/12/12 16:14:02;;;;;;;2.33;2.10;;;6.80;56.40;;;;;;6325312;28;20468;-67
2021/12/12 16:17:12;;;;;;;6.30;3.70;;;6.80;57.10;;;;;;6326390;28;20475;-68
2021/12/12 16:20:22;;;;;;;4.70;3.70;;;6.70;57.90;;;;;;6325262;28;20464;-67
2021/12/12 16:23:29;;;;;;;5.77;3.77;;;6.60;59.20;;;;;;6325151;28;20468;-67
2021/12/12 16:26:36;;;;;;;9.40;6.90;;;6.60;59.70;;;;;;6325181;28;20563;-67
2021/12/12 16:29:47;;;;;;;7.47;4.23;;;6.50;60.60;;;;;;6324960;28;21237;-67
2021/12/12 16:32:54;;;;;;;5.30;4.70;;;6.50;62.20;;;;;;6324910;28;20460;-66
2021/12/12 16:36:00;;;;;;;5.63;5.13;;;6.40;63.50;;;;;;6325020;28;20813;-67
2021/12/12 16:39:07;;;;;;;6.43;5.60;;;6.30;64.20;;;;;;6324820;28;20472;-68
2021/12/12 16:42:17;;;;;;;7.13;5.97;;;6.20;64.70;;;;;;6320118;28;20480;-68
2021/12/12 16:45:28;;;;;;;8.10;6.80;;;6.20;65.40;;;;;;6321431;28;20475;-68
2021/12/12 16:48:43;;;;;;;6.93;6.03;;;6.10;66.40;;;;;;6325211;28;20428;-68
2021/12/12 16:51:54;;;;;;;7.87;6.07;;;6.00;67.90;;;;;;6324651;28;20563;-67
2021/12/12 16:55:07;;;;;;;7.90;6.90;;;6.00;68.80;;;;;;6324362;28;20545;-67